sensor_id;sensor_type;location;lat;lon;timestamp;P1;durP1;ratioP1;P2;durP2;ratioP2
51660;SDS011;37741;49.748;8.490;2022-11-30T00:01:53;20.85;;;15.52;;
51660;SDS011;37741;49.748;8.490;2022-11-30T00:04:19;21.35;;;15.52;;
51660;SDS011;37741;49.748;8.490;2022-11-30T00:06:45;19.52;;;15.15;;
51660;SDS011;37741;49.748;8.490;2022-11-30T00:09:10;19.23;;;15.48;;
51660;SDS011;37741;49.748;8.490;2022-11-30T00:11:37;19.83;;;15.43;;
51660;SDS011;37741;49.748;8.490;2022-11-30T00:14:02;19.00;;;14.38;;
51660;SDS011;37741;49.748;8.490;2022-11-30T00:16:28;21.13;;;15.30;;
51660;SDS011;37741;49.748;8.490;2022-11-30T00:18:54;18.02;;;14.80;;
51660;SDS011;37741;49.748;8.490;2022-11-30T00:21:19;19.35;;;15.80;;
51660;SDS011;37741;49.748;8.490;2022-11-30T00:23:45;20.75;;;16.27;;
51660;SDS011;37741;49.748;8.490;2022-11-30T00:26:12;18.58;;;15.30;;
51660;SDS011;37741;49.748;8.490;2022-11-30T00:28:39;19.05;;;15.95;;
51660;SDS011;37741;49.748;8.490;2022-11-30T00:31:06;22.83;;;15.75;;
51660;SDS011;37741;49.748;8.490;2022-11-30T00:33:35;23.70;;;17.02;;
51660;SDS011;37741;49.748;8.490;2022-11-30T00:36:03;21.25;;;16.65;;
51660;SDS011;37741;49.748;8.490;2022-11-30T00:38:30;23.08;;;16.63;;
51660;SDS011;37741;49.748;8.490;2022-11-30T00:40:57;23.38;;;17.23;;
51660;SDS011;37741;49.748;8.490;2022-11-30T00:43:23;23.23;;;16.92;;
51660;SDS011;37741;49.748;8.490;2022-11-30T00:45:48;22.25;;;17.10;;
51660;SDS011;37741;49.748;8.490;2022-11-30T00:48:14;25.55;;;15.45;;
51660;SDS011;37741;49.748;8.490;2022-11-30T00:50:40;22.67;;;15.77;;
51660;SDS011;37741;49.748;8.490;2022-11-30T00:53:05;20.38;;;16.02;;
51660;SDS011;37741;49.748;8.490;2022-11-30T00:55:31;20.83;;;16.02;;
51660;SDS011;37741;49.748;8.490;2022-11-30T00:57:57;18.98;;;15.65;;
51660;SDS011;37741;49.748;8.490;2022-11-30T01:00:23;20.08;;;15.93;;
51660;SDS011;37741;49.748;8.490;2022-11-30T01:02:52;22.90;;;17.20;;
51660;SDS011;37741;49.748;8.490;2022-11-30T01:05:18;21.67;;;15.75;;
51660;SDS011;37741;49.748;8.490;2022-11-30T01:07:44;23.23;;;16.38;;
51660;SDS011;37741;49.748;8.490;2022-11-30T01:10:10;20.25;;;16.17;;
51660;SDS011;37741;49.748;8.490;2022-11-30T01:12:35;23.02;;;16.38;;
51660;SDS011;37741;49.748;8.490;2022-11-30T01:15:01;21.02;;;15.27;;
51660;SDS011;37741;49.748;8.490;2022-11-30T01:17:26;21.42;;;16.95;;
51660;SDS011;37741;49.748;8.490;2022-11-30T01:19:52;20.42;;;16.42;;
51660;SDS011;37741;49.748;8.490;2022-11-30T01:22:17;21.73;;;16.02;;
51660;SDS011;37741;49.748;8.490;2022-11-30T01:24:43;22.23;;;16.10;;
51660;SDS011;37741;49.748;8.490;2022-11-30T01:27:09;20.98;;;16.25;;
51660;SDS011;37741;49.748;8.490;2022-11-30T01:29:35;21.88;;;16.20;;
51660;SDS011;37741;49.748;8.490;2022-11-30T01:32:01;22.90;;;16.33;;
51660;SDS011;37741;49.748;8.490;2022-11-30T01:34:26;35.38;;;16.88;;
51660;SDS011;37741;49.748;8.490;2022-11-30T01:36:52;23.92;;;16.83;;
51660;SDS011;37741;49.748;8.490;2022-11-30T01:39:17;24.05;;;16.70;;
51660;SDS011;37741;49.748;8.490;2022-11-30T01:41:43;26.05;;;17.42;;
51660;SDS011;37741;49.748;8.490;2022-11-30T01:46:44;24.35;;;17.58;;
51660;SDS011;37741;49.748;8.490;2022-11-30T01:49:19;23.58;;;17.00;;
51660;SDS011;37741;49.748;8.490;2022-11-30T01:51:53;23.23;;;16.35;;
51660;SDS011;37741;49.748;8.490;2022-11-30T01:54:25;24.00;;;16.83;;
51660;SDS011;37741;49.748;8.490;2022-11-30T01:56:56;23.92;;;15.85;;
51660;SDS011;37741;49.748;8.490;2022-11-30T01:59:26;21.85;;;16.10;;
51660;SDS011;37741;49.748;8.490;2022-11-30T02:01:53;22.40;;;17.13;;
51660;SDS011;37741;49.748;8.490;2022-11-30T02:04:21;23.35;;;17.17;;
51660;SDS011;37741;49.748;8.490;2022-11-30T02:06:50;23.33;;;17.00;;
51660;SDS011;37741;49.748;8.490;2022-11-30T02:09:17;23.27;;;15.60;;
51660;SDS011;37741;49.748;8.490;2022-11-30T02:11:44;24.10;;;16.52;;
51660;SDS011;37741;49.748;8.490;2022-11-30T02:17:19;25.00;;;17.52;;
51660;SDS011;37741;49.748;8.490;2022-11-30T02:28:33;22.77;;;14.52;;
51660;SDS011;37741;49.748;8.490;2022-11-30T02:31:10;20.85;;;15.40;;
51660;SDS011;37741;49.748;8.490;2022-11-30T02:33:42;25.33;;;16.33;;
51660;SDS011;37741;49.748;8.490;2022-11-30T02:36:09;24.50;;;16.05;;
51660;SDS011;37741;49.748;8.490;2022-11-30T02:38:35;23.25;;;16.80;;
51660;SDS011;37741;49.748;8.490;2022-11-30T02:41:02;22.80;;;16.83;;
51660;SDS011;37741;49.748;8.490;2022-11-30T02:43:27;25.52;;;16.60;;
51660;SDS011;37741;49.748;8.490;2022-11-30T02:51:36;23.02;;;16.00;;
51660;SDS011;37741;49.748;8.490;2022-11-30T02:54:03;24.98;;;16.83;;
51660;SDS011;37741;49.748;8.490;2022-11-30T02:56:29;25.23;;;17.05;;
51660;SDS011;37741;49.748;8.490;2022-11-30T02:58:56;22.42;;;15.68;;
51660;SDS011;37741;49.748;8.490;2022-11-30T03:01:22;22.17;;;16.13;;
51660;SDS011;37741;49.748;8.490;2022-11-30T03:03:48;22.40;;;15.70;;
51660;SDS011;37741;49.748;8.490;2022-11-30T03:06:14;26.08;;;16.17;;
51660;SDS011;37741;49.748;8.490;2022-11-30T03:08:39;25.80;;;15.98;;
51660;SDS011;37741;49.748;8.490;2022-11-30T03:11:05;21.67;;;15.25;;
51660;SDS011;37741;49.748;8.490;2022-11-30T03:13:31;25.58;;;17.02;;
51660;SDS011;37741;49.748;8.490;2022-11-30T03:15:57;22.70;;;15.88;;
51660;SDS011;37741;49.748;8.490;2022-11-30T03:18:23;25.40;;;17.42;;
51660;SDS011;37741;49.748;8.490;2022-11-30T03:20:48;23.50;;;16.58;;
51660;SDS011;37741;49.748;8.490;2022-11-30T03:23:14;23.70;;;16.08;;
51660;SDS011;37741;49.748;8.490;2022-11-30T03:25:39;22.40;;;15.07;;
51660;SDS011;37741;49.748;8.490;2022-11-30T03:28:05;23.83;;;16.27;;
51660;SDS011;37741;49.748;8.490;2022-11-30T03:30:30;26.55;;;16.88;;
51660;SDS011;37741;49.748;8.490;2022-11-30T03:32:56;23.55;;;15.13;;
51660;SDS011;37741;49.748;8.490;2022-11-30T03:35:22;26.80;;;15.93;;
51660;SDS011;37741;49.748;8.490;2022-11-30T03:37:48;25.83;;;17.38;;
51660;SDS011;37741;49.748;8.490;2022-11-30T03:40:14;25.83;;;15.93;;
51660;SDS011;37741;49.748;8.490;2022-11-30T03:42:39;24.90;;;15.38;;
51660;SDS011;37741;49.748;8.490;2022-11-30T03:45:05;26.02;;;15.85;;
51660;SDS011;37741;49.748;8.490;2022-11-30T03:47:31;30.92;;;18.48;;
51660;SDS011;37741;49.748;8.490;2022-11-30T03:49:56;24.48;;;16.02;;
51660;SDS011;37741;49.748;8.490;2022-11-30T03:52:22;31.05;;;17.15;;
51660;SDS011;37741;49.748;8.490;2022-11-30T03:54:47;26.30;;;16.75;;
51660;SDS011;37741;49.748;8.490;2022-11-30T03:57:13;25.15;;;16.25;;
51660;SDS011;37741;49.748;8.490;2022-11-30T03:59:38;24.48;;;15.80;;
51660;SDS011;37741;49.748;8.490;2022-11-30T04:02:04;24.38;;;15.35;;
51660;SDS011;37741;49.748;8.490;2022-11-30T04:04:55;28.88;;;18.42;;
51660;SDS011;37741;49.748;8.490;2022-11-30T04:07:20;28.58;;;16.92;;
51660;SDS011;37741;49.748;8.490;2022-11-30T04:09:46;25.90;;;16.58;;
51660;SDS011;37741;49.748;8.490;2022-11-30T04:12:11;23.60;;;16.38;;
51660;SDS011;37741;49.748;8.490;2022-11-30T04:14:37;25.73;;;16.90;;
51660;SDS011;37741;49.748;8.490;2022-11-30T04:17:02;25.60;;;16.65;;
51660;SDS011;37741;49.748;8.490;2022-11-30T04:19:28;26.02;;;16.95;;
51660;SDS011;37741;49.748;8.490;2022-11-30T04:21:54;24.65;;;16.90;;
51660;SDS011;37741;49.748;8.490;2022-11-30T04:24:19;24.42;;;15.50;;
51660;SDS011;37741;49.748;8.490;2022-11-30T04:26:45;29.35;;;17.30;;
51660;SDS011;37741;49.748;8.490;2022-11-30T04:29:11;27.30;;;16.85;;
51660;SDS011;37741;49.748;8.490;2022-11-30T04:31:36;28.55;;;17.63;;
51660;SDS011;37741;49.748;8.490;2022-11-30T04:34:02;29.88;;;17.15;;
51660;SDS011;37741;49.748;8.490;2022-11-30T04:36:27;25.10;;;14.75;;
51660;SDS011;37741;49.748;8.490;2022-11-30T04:38:53;26.25;;;17.60;;
51660;SDS011;37741;49.748;8.490;2022-11-30T04:41:18;28.33;;;17.65;;
51660;SDS011;37741;49.748;8.490;2022-11-30T04:43:44;25.80;;;16.50;;
51660;SDS011;37741;49.748;8.490;2022-11-30T04:46:10;29.85;;;17.23;;
51660;SDS011;37741;49.748;8.490;2022-11-30T04:48:35;24.75;;;15.38;;
51660;SDS011;37741;49.748;8.490;2022-11-30T04:51:02;29.58;;;16.58;;
51660;SDS011;37741;49.748;8.490;2022-11-30T04:53:29;29.63;;;18.25;;
51660;SDS011;37741;49.748;8.490;2022-11-30T04:55:55;28.02;;;16.80;;
51660;SDS011;37741;49.748;8.490;2022-11-30T04:58:21;30.00;;;19.00;;
51660;SDS011;37741;49.748;8.490;2022-11-30T05:00:47;27.08;;;16.02;;
51660;SDS011;37741;49.748;8.490;2022-11-30T05:03:12;29.70;;;17.77;;
51660;SDS011;37741;49.748;8.490;2022-11-30T05:05:38;25.77;;;15.30;;
51660;SDS011;37741;49.748;8.490;2022-11-30T05:08:04;25.27;;;16.35;;
51660;SDS011;37741;49.748;8.490;2022-11-30T05:10:29;26.52;;;16.67;;
51660;SDS011;37741;49.748;8.490;2022-11-30T05:12:57;28.88;;;16.63;;
51660;SDS011;37741;49.748;8.490;2022-11-30T05:15:24;24.92;;;15.15;;
51660;SDS011;37741;49.748;8.490;2022-11-30T05:17:50;24.83;;;16.55;;
51660;SDS011;37741;49.748;8.490;2022-11-30T05:20:15;28.00;;;17.27;;
51660;SDS011;37741;49.748;8.490;2022-11-30T05:22:41;28.33;;;17.85;;
51660;SDS011;37741;49.748;8.490;2022-11-30T05:25:07;31.73;;;17.70;;
51660;SDS011;37741;49.748;8.490;2022-11-30T05:27:33;28.50;;;16.88;;
51660;SDS011;37741;49.748;8.490;2022-11-30T05:29:59;31.83;;;18.48;;
51660;SDS011;37741;49.748;8.490;2022-11-30T05:32:25;28.17;;;17.95;;
51660;SDS011;37741;49.748;8.490;2022-11-30T05:34:51;30.90;;;18.10;;
51660;SDS011;37741;49.748;8.490;2022-11-30T05:37:16;33.10;;;17.50;;
51660;SDS011;37741;49.748;8.490;2022-11-30T05:39:43;34.22;;;18.38;;
51660;SDS011;37741;49.748;8.490;2022-11-30T05:42:08;27.38;;;16.65;;
51660;SDS011;37741;49.748;8.490;2022-11-30T05:44:34;30.77;;;17.98;;
51660;SDS011;37741;49.748;8.490;2022-11-30T05:46:59;30.95;;;18.33;;
51660;SDS011;37741;49.748;8.490;2022-11-30T05:49:25;30.08;;;17.90;;
51660;SDS011;37741;49.748;8.490;2022-11-30T05:51:50;34.97;;;17.98;;
51660;SDS011;37741;49.748;8.490;2022-11-30T05:54:16;29.35;;;17.77;;
51660;SDS011;37741;49.748;8.490;2022-11-30T05:56:42;27.90;;;17.00;;
51660;SDS011;37741;49.748;8.490;2022-11-30T05:59:08;31.13;;;18.70;;
51660;SDS011;37741;49.748;8.490;2022-11-30T06:01:35;27.52;;;16.60;;
51660;SDS011;37741;49.748;8.490;2022-11-30T06:04:03;28.50;;;17.08;;
51660;SDS011;37741;49.748;8.490;2022-11-30T06:06:29;30.55;;;17.52;;
51660;SDS011;37741;49.748;8.490;2022-11-30T06:08:54;30.48;;;18.33;;
51660;SDS011;37741;49.748;8.490;2022-11-30T06:11:20;30.23;;;17.23;;
51660;SDS011;37741;49.748;8.490;2022-11-30T06:13:45;25.30;;;16.08;;
51660;SDS011;37741;49.748;8.490;2022-11-30T06:16:11;29.23;;;17.63;;
51660;SDS011;37741;49.748;8.490;2022-11-30T06:18:36;31.40;;;18.33;;
51660;SDS011;37741;49.748;8.490;2022-11-30T06:21:03;28.77;;;18.13;;
51660;SDS011;37741;49.748;8.490;2022-11-30T06:23:31;28.00;;;17.65;;
51660;SDS011;37741;49.748;8.490;2022-11-30T06:25:57;30.73;;;17.95;;
51660;SDS011;37741;49.748;8.490;2022-11-30T06:28:26;28.60;;;16.33;;
51660;SDS011;37741;49.748;8.490;2022-11-30T06:30:52;28.50;;;17.90;;
51660;SDS011;37741;49.748;8.490;2022-11-30T06:33:21;28.38;;;16.75;;
51660;SDS011;37741;49.748;8.490;2022-11-30T06:35:47;32.63;;;18.90;;
51660;SDS011;37741;49.748;8.490;2022-11-30T06:38:13;32.45;;;17.83;;
51660;SDS011;37741;49.748;8.490;2022-11-30T06:40:38;33.22;;;18.30;;
51660;SDS011;37741;49.748;8.490;2022-11-30T06:43:04;29.58;;;17.45;;
51660;SDS011;37741;49.748;8.490;2022-11-30T06:45:30;28.73;;;19.02;;
51660;SDS011;37741;49.748;8.490;2022-11-30T06:47:55;28.73;;;17.10;;
51660;SDS011;37741;49.748;8.490;2022-11-30T06:50:22;28.98;;;17.38;;
51660;SDS011;37741;49.748;8.490;2022-11-30T06:52:48;27.77;;;17.20;;
51660;SDS011;37741;49.748;8.490;2022-11-30T06:55:13;24.63;;;16.20;;
51660;SDS011;37741;49.748;8.490;2022-11-30T06:57:39;27.80;;;17.20;;
51660;SDS011;37741;49.748;8.490;2022-11-30T07:00:05;28.65;;;16.98;;
51660;SDS011;37741;49.748;8.490;2022-11-30T07:02:32;33.03;;;17.88;;
51660;SDS011;37741;49.748;8.490;2022-11-30T07:04:57;24.35;;;16.33;;
51660;SDS011;37741;49.748;8.490;2022-11-30T07:07:23;31.17;;;17.73;;
51660;SDS011;37741;49.748;8.490;2022-11-30T07:09:49;24.63;;;15.85;;
51660;SDS011;37741;49.748;8.490;2022-11-30T07:12:16;30.02;;;16.80;;
51660;SDS011;37741;49.748;8.490;2022-11-30T07:14:42;29.98;;;17.33;;
51660;SDS011;37741;49.748;8.490;2022-11-30T07:17:07;25.90;;;16.27;;
51660;SDS011;37741;49.748;8.490;2022-11-30T07:19:33;26.77;;;17.15;;
51660;SDS011;37741;49.748;8.490;2022-11-30T07:21:58;29.65;;;16.55;;
51660;SDS011;37741;49.748;8.490;2022-11-30T07:24:24;26.23;;;15.18;;
51660;SDS011;37741;49.748;8.490;2022-11-30T07:27:08;27.70;;;16.73;;
51660;SDS011;37741;49.748;8.490;2022-11-30T07:29:34;29.80;;;15.82;;
51660;SDS011;37741;49.748;8.490;2022-11-30T07:31:59;28.48;;;17.30;;
51660;SDS011;37741;49.748;8.490;2022-11-30T07:34:25;28.73;;;16.80;;
51660;SDS011;37741;49.748;8.490;2022-11-30T07:36:51;30.27;;;17.15;;
51660;SDS011;37741;49.748;8.490;2022-11-30T07:39:16;28.90;;;16.48;;
51660;SDS011;37741;49.748;8.490;2022-11-30T07:41:42;31.15;;;17.17;;
51660;SDS011;37741;49.748;8.490;2022-11-30T07:44:07;30.63;;;17.95;;
51660;SDS011;37741;49.748;8.490;2022-11-30T07:46:34;26.85;;;17.17;;
51660;SDS011;37741;49.748;8.490;2022-11-30T07:49:04;30.33;;;17.60;;
51660;SDS011;37741;49.748;8.490;2022-11-30T07:51:30;27.55;;;17.45;;
51660;SDS011;37741;49.748;8.490;2022-11-30T07:53:57;27.63;;;16.52;;
51660;SDS011;37741;49.748;8.490;2022-11-30T07:56:23;30.90;;;17.33;;
51660;SDS011;37741;49.748;8.490;2022-11-30T07:58:50;31.13;;;18.65;;
51660;SDS011;37741;49.748;8.490;2022-11-30T08:01:21;24.77;;;15.07;;
51660;SDS011;37741;49.748;8.490;2022-11-30T08:03:48;28.20;;;17.20;;
51660;SDS011;37741;49.748;8.490;2022-11-30T08:06:16;25.58;;;16.55;;
51660;SDS011;37741;49.748;8.490;2022-11-30T08:08:46;27.98;;;16.75;;
51660;SDS011;37741;49.748;8.490;2022-11-30T08:11:14;29.63;;;17.63;;
51660;SDS011;37741;49.748;8.490;2022-11-30T08:13:41;26.80;;;17.48;;
51660;SDS011;37741;49.748;8.490;2022-11-30T08:16:08;26.58;;;17.15;;
51660;SDS011;37741;49.748;8.490;2022-11-30T08:18:36;25.88;;;15.10;;
51660;SDS011;37741;49.748;8.490;2022-11-30T08:21:03;26.42;;;16.70;;
51660;SDS011;37741;49.748;8.490;2022-11-30T08:23:31;30.35;;;17.25;;
51660;SDS011;37741;49.748;8.490;2022-11-30T08:26:04;27.42;;;17.67;;
51660;SDS011;37741;49.748;8.490;2022-11-30T08:28:35;25.92;;;17.17;;
51660;SDS011;37741;49.748;8.490;2022-11-30T08:31:02;26.77;;;16.83;;
51660;SDS011;37741;49.748;8.490;2022-11-30T08:33:29;25.83;;;16.05;;
51660;SDS011;37741;49.748;8.490;2022-11-30T08:36:17;28.35;;;16.33;;
51660;SDS011;37741;49.748;8.490;2022-11-30T08:38:43;29.15;;;16.48;;
51660;SDS011;37741;49.748;8.490;2022-11-30T08:41:11;22.88;;;15.43;;
51660;SDS011;37741;49.748;8.490;2022-11-30T08:43:38;28.25;;;16.50;;
51660;SDS011;37741;49.748;8.490;2022-11-30T08:46:04;26.05;;;15.68;;
51660;SDS011;37741;49.748;8.490;2022-11-30T08:48:31;27.55;;;15.73;;
51660;SDS011;37741;49.748;8.490;2022-11-30T08:50:58;27.50;;;15.93;;
51660;SDS011;37741;49.748;8.490;2022-11-30T08:53:25;27.10;;;16.65;;
51660;SDS011;37741;49.748;8.490;2022-11-30T08:56:03;27.92;;;15.05;;
51660;SDS011;37741;49.748;8.490;2022-11-30T08:58:31;21.50;;;14.18;;
51660;SDS011;37741;49.748;8.490;2022-11-30T09:03:34;25.42;;;14.30;;
51660;SDS011;37741;49.748;8.490;2022-11-30T09:06:07;24.75;;;15.05;;
51660;SDS011;37741;49.748;8.490;2022-11-30T09:08:37;22.95;;;15.73;;
51660;SDS011;37741;49.748;8.490;2022-11-30T09:11:10;26.77;;;17.17;;
51660;SDS011;37741;49.748;8.490;2022-11-30T09:13:38;25.63;;;15.80;;
51660;SDS011;37741;49.748;8.490;2022-11-30T09:16:05;23.30;;;14.88;;
51660;SDS011;37741;49.748;8.490;2022-11-30T09:18:31;21.85;;;14.90;;
51660;SDS011;37741;49.748;8.490;2022-11-30T09:21:00;24.50;;;14.93;;
51660;SDS011;37741;49.748;8.490;2022-11-30T09:23:28;21.77;;;14.65;;
51660;SDS011;37741;49.748;8.490;2022-11-30T09:25:55;23.05;;;16.00;;
51660;SDS011;37741;49.748;8.490;2022-11-30T09:28:24;24.40;;;15.20;;
51660;SDS011;37741;49.748;8.490;2022-11-30T09:30:50;19.63;;;13.63;;
51660;SDS011;37741;49.748;8.490;2022-11-30T09:33:16;21.38;;;14.52;;
51660;SDS011;37741;49.748;8.490;2022-11-30T09:35:43;24.52;;;14.60;;
51660;SDS011;37741;49.748;8.490;2022-11-30T09:38:08;23.88;;;14.55;;
51660;SDS011;37741;49.748;8.490;2022-11-30T09:40:34;20.23;;;14.88;;
51660;SDS011;37741;49.748;8.490;2022-11-30T09:43:07;22.23;;;15.13;;
51660;SDS011;37741;49.748;8.490;2022-11-30T09:45:58;22.08;;;14.38;;
51660;SDS011;37741;49.748;8.490;2022-11-30T09:48:47;24.20;;;14.52;;
51660;SDS011;37741;49.748;8.490;2022-11-30T09:51:30;19.58;;;14.15;;
51660;SDS011;37741;49.748;8.490;2022-11-30T09:54:17;20.73;;;14.75;;
51660;SDS011;37741;49.748;8.490;2022-11-30T09:56:46;21.40;;;13.98;;
51660;SDS011;37741;49.748;8.490;2022-11-30T09:59:22;24.63;;;16.42;;
51660;SDS011;37741;49.748;8.490;2022-11-30T10:01:54;22.20;;;15.85;;
51660;SDS011;37741;49.748;8.490;2022-11-30T10:04:29;24.42;;;15.90;;
51660;SDS011;37741;49.748;8.490;2022-11-30T10:06:59;22.90;;;14.45;;
51660;SDS011;37741;49.748;8.490;2022-11-30T10:12:04;21.60;;;15.75;;
51660;SDS011;37741;49.748;8.490;2022-11-30T10:14:39;24.48;;;16.05;;
51660;SDS011;37741;49.748;8.490;2022-11-30T10:17:33;19.88;;;13.30;;
51660;SDS011;37741;49.748;8.490;2022-11-30T10:25:22;21.83;;;15.40;;
51660;SDS011;37741;49.748;8.490;2022-11-30T10:27:53;20.20;;;14.85;;
51660;SDS011;37741;49.748;8.490;2022-11-30T10:30:29;21.17;;;15.35;;
51660;SDS011;37741;49.748;8.490;2022-11-30T10:32:59;21.45;;;14.13;;
51660;SDS011;37741;49.748;8.490;2022-11-30T10:36:08;20.95;;;15.30;;
51660;SDS011;37741;49.748;8.490;2022-11-30T10:38:34;20.33;;;14.77;;
51660;SDS011;37741;49.748;8.490;2022-11-30T10:41:13;21.85;;;15.68;;
51660;SDS011;37741;49.748;8.490;2022-11-30T10:43:51;24.17;;;15.95;;
51660;SDS011;37741;49.748;8.490;2022-11-30T10:46:32;22.73;;;13.75;;
51660;SDS011;37741;49.748;8.490;2022-11-30T10:49:04;19.25;;;14.48;;
51660;SDS011;37741;49.748;8.490;2022-11-30T10:51:36;22.27;;;13.77;;
51660;SDS011;37741;49.748;8.490;2022-11-30T10:54:04;21.75;;;14.55;;
51660;SDS011;37741;49.748;8.490;2022-11-30T10:56:42;20.58;;;14.40;;
51660;SDS011;37741;49.748;8.490;2022-11-30T10:59:10;20.67;;;14.63;;
51660;SDS011;37741;49.748;8.490;2022-11-30T11:01:47;18.67;;;13.63;;
51660;SDS011;37741;49.748;8.490;2022-11-30T11:04:17;17.50;;;13.52;;
51660;SDS011;37741;49.748;8.490;2022-11-30T11:06:57;20.42;;;14.05;;
51660;SDS011;37741;49.748;8.490;2022-11-30T11:14:48;20.90;;;13.30;;
51660;SDS011;37741;49.748;8.490;2022-11-30T11:17:42;20.63;;;14.35;;
51660;SDS011;37741;49.748;8.490;2022-11-30T11:22:54;18.13;;;13.60;;
51660;SDS011;37741;49.748;8.490;2022-11-30T11:25:20;19.23;;;14.40;;
51660;SDS011;37741;49.748;8.490;2022-11-30T11:27:53;18.55;;;14.10;;
51660;SDS011;37741;49.748;8.490;2022-11-30T11:33:00;20.65;;;14.27;;
51660;SDS011;37741;49.748;8.490;2022-11-30T11:38:27;16.73;;;13.65;;
51660;SDS011;37741;49.748;8.490;2022-11-30T11:43:25;17.27;;;14.23;;
51660;SDS011;37741;49.748;8.490;2022-11-30T11:45:57;18.98;;;14.23;;
51660;SDS011;37741;49.748;8.490;2022-11-30T11:48:31;18.42;;;13.88;;
51660;SDS011;37741;49.748;8.490;2022-11-30T11:51:06;18.33;;;13.57;;
51660;SDS011;37741;49.748;8.490;2022-11-30T11:53:36;18.50;;;13.20;;
51660;SDS011;37741;49.748;8.490;2022-11-30T11:58:44;18.45;;;15.05;;
51660;SDS011;37741;49.748;8.490;2022-11-30T12:01:24;17.20;;;14.77;;
51660;SDS011;37741;49.748;8.490;2022-11-30T12:07:00;18.15;;;14.05;;
51660;SDS011;37741;49.748;8.490;2022-11-30T12:09:30;17.75;;;14.75;;
51660;SDS011;37741;49.748;8.490;2022-11-30T12:12:00;16.83;;;13.98;;
51660;SDS011;37741;49.748;8.490;2022-11-30T12:14:26;17.38;;;14.60;;
51660;SDS011;37741;49.748;8.490;2022-11-30T12:19:24;17.42;;;14.45;;
51660;SDS011;37741;49.748;8.490;2022-11-30T12:30:11;15.88;;;13.52;;
51660;SDS011;37741;49.748;8.490;2022-11-30T12:35:42;16.90;;;13.90;;
51660;SDS011;37741;49.748;8.490;2022-11-30T12:42:02;15.63;;;13.00;;
51660;SDS011;37741;49.748;8.490;2022-11-30T12:44:21;16.33;;;13.85;;
51660;SDS011;37741;49.748;8.490;2022-11-30T13:00:34;17.45;;;14.40;;
51660;SDS011;37741;49.748;8.490;2022-11-30T13:06:00;18.52;;;14.07;;
51660;SDS011;37741;49.748;8.490;2022-11-30T13:08:44;17.58;;;14.25;;
51660;SDS011;37741;49.748;8.490;2022-11-30T13:11:35;18.33;;;15.13;;
51660;SDS011;37741;49.748;8.490;2022-11-30T13:14:03;16.95;;;14.25;;
51660;SDS011;37741;49.748;8.490;2022-11-30T13:16:35;19.20;;;15.38;;
51660;SDS011;37741;49.748;8.490;2022-11-30T13:21:58;20.00;;;15.87;;
51660;SDS011;37741;49.748;8.490;2022-11-30T13:24:34;18.45;;;15.48;;
51660;SDS011;37741;49.748;8.490;2022-11-30T13:27:11;21.55;;;15.82;;
51660;SDS011;37741;49.748;8.490;2022-11-30T13:32:30;17.20;;;14.70;;
51660;SDS011;37741;49.748;8.490;2022-11-30T13:38:04;18.50;;;15.25;;
51660;SDS011;37741;49.748;8.490;2022-11-30T13:43:20;17.27;;;14.98;;
51660;SDS011;37741;49.748;8.490;2022-11-30T13:45:48;16.85;;;14.52;;
51660;SDS011;37741;49.748;8.490;2022-11-30T13:48:46;18.50;;;15.32;;
51660;SDS011;37741;49.748;8.490;2022-11-30T13:51:11;18.13;;;15.20;;
51660;SDS011;37741;49.748;8.490;2022-11-30T13:53:37;18.48;;;14.77;;
51660;SDS011;37741;49.748;8.490;2022-11-30T13:56:05;18.60;;;14.75;;
51660;SDS011;37741;49.748;8.490;2022-11-30T14:01:51;19.20;;;15.15;;
51660;SDS011;37741;49.748;8.490;2022-11-30T14:04:42;17.38;;;14.30;;
51660;SDS011;37741;49.748;8.490;2022-11-30T14:09:59;15.98;;;13.93;;
51660;SDS011;37741;49.748;8.490;2022-11-30T14:14:57;19.13;;;15.32;;
51660;SDS011;37741;49.748;8.490;2022-11-30T14:17:27;16.42;;;13.30;;
51660;SDS011;37741;49.748;8.490;2022-11-30T14:20:06;16.45;;;13.65;;
51660;SDS011;37741;49.748;8.490;2022-11-30T14:22:42;17.20;;;13.07;;
51660;SDS011;37741;49.748;8.490;2022-11-30T14:25:15;16.88;;;14.45;;
51660;SDS011;37741;49.748;8.490;2022-11-30T14:27:43;15.57;;;13.02;;
51660;SDS011;37741;49.748;8.490;2022-11-30T14:30:19;15.73;;;12.93;;
51660;SDS011;37741;49.748;8.490;2022-11-30T14:32:57;17.20;;;14.02;;
51660;SDS011;37741;49.748;8.490;2022-11-30T14:35:27;18.45;;;13.70;;
51660;SDS011;37741;49.748;8.490;2022-11-30T14:37:56;18.33;;;14.30;;
51660;SDS011;37741;49.748;8.490;2022-11-30T14:40:23;16.30;;;14.15;;
51660;SDS011;37741;49.748;8.490;2022-11-30T14:42:55;17.50;;;13.93;;
51660;SDS011;37741;49.748;8.490;2022-11-30T14:45:26;17.20;;;13.18;;
51660;SDS011;37741;49.748;8.490;2022-11-30T14:48:09;15.25;;;12.88;;
51660;SDS011;37741;49.748;8.490;2022-11-30T14:50:45;16.33;;;13.70;;
51660;SDS011;37741;49.748;8.490;2022-11-30T14:56:30;16.75;;;14.00;;
51660;SDS011;37741;49.748;8.490;2022-11-30T14:59:02;14.38;;;12.25;;
51660;SDS011;37741;49.748;8.490;2022-11-30T15:01:54;17.92;;;13.35;;
51660;SDS011;37741;49.748;8.490;2022-11-30T15:04:21;16.85;;;13.60;;
51660;SDS011;37741;49.748;8.490;2022-11-30T15:06:51;15.90;;;13.02;;
51660;SDS011;37741;49.748;8.490;2022-11-30T15:09:18;16.13;;;12.50;;
51660;SDS011;37741;49.748;8.490;2022-11-30T15:11:46;16.48;;;12.52;;
51660;SDS011;37741;49.748;8.490;2022-11-30T15:14:14;14.60;;;12.68;;
51660;SDS011;37741;49.748;8.490;2022-11-30T15:16:46;16.83;;;13.38;;
51660;SDS011;37741;49.748;8.490;2022-11-30T15:19:23;14.85;;;12.35;;
51660;SDS011;37741;49.748;8.490;2022-11-30T15:21:51;15.55;;;12.27;;
51660;SDS011;37741;49.748;8.490;2022-11-30T15:24:17;15.45;;;12.45;;
51660;SDS011;37741;49.748;8.490;2022-11-30T15:26:51;16.73;;;12.85;;
51660;SDS011;37741;49.748;8.490;2022-11-30T15:29:25;17.33;;;12.40;;
51660;SDS011;37741;49.748;8.490;2022-11-30T15:32:00;15.20;;;12.80;;
51660;SDS011;37741;49.748;8.490;2022-11-30T15:34:43;16.15;;;12.27;;
51660;SDS011;37741;49.748;8.490;2022-11-30T15:37:12;14.95;;;11.85;;
51660;SDS011;37741;49.748;8.490;2022-11-30T15:39:39;15.63;;;11.85;;
51660;SDS011;37741;49.748;8.490;2022-11-30T15:42:13;16.92;;;12.55;;
51660;SDS011;37741;49.748;8.490;2022-11-30T15:44:50;15.35;;;12.73;;
51660;SDS011;37741;49.748;8.490;2022-11-30T15:49:54;15.68;;;11.85;;
51660;SDS011;37741;49.748;8.490;2022-11-30T15:52:24;14.35;;;11.65;;
51660;SDS011;37741;49.748;8.490;2022-11-30T15:54:57;15.40;;;12.40;;
51660;SDS011;37741;49.748;8.490;2022-11-30T15:57:55;14.70;;;11.10;;
51660;SDS011;37741;49.748;8.490;2022-11-30T16:00:23;13.77;;;11.77;;
51660;SDS011;37741;49.748;8.490;2022-11-30T16:02:49;13.48;;;11.50;;
51660;SDS011;37741;49.748;8.490;2022-11-30T16:05:32;14.85;;;11.30;;
51660;SDS011;37741;49.748;8.490;2022-11-30T16:07:57;11.95;;;10.63;;
51660;SDS011;37741;49.748;8.490;2022-11-30T16:13:04;13.90;;;11.35;;
51660;SDS011;37741;49.748;8.490;2022-11-30T16:15:31;12.45;;;11.05;;
51660;SDS011;37741;49.748;8.490;2022-11-30T16:20:48;12.90;;;11.10;;
51660;SDS011;37741;49.748;8.490;2022-11-30T16:23:22;12.77;;;11.40;;
51660;SDS011;37741;49.748;8.490;2022-11-30T16:25:48;12.32;;;10.60;;
51660;SDS011;37741;49.748;8.490;2022-11-30T16:28:14;13.73;;;11.10;;
51660;SDS011;37741;49.748;8.490;2022-11-30T16:30:41;11.98;;;10.45;;